createdAt,value
2023-05-19T00:02:20.294Z,22.10
2023-05-19T00:07:20.509Z,20.60
2023-05-19T00:12:19.721Z,19.60
2023-05-19T00:17:18.979Z,19.20
2023-05-19T00:22:19.187Z,15.90
2023-05-19T00:27:17.370Z,16.10
2023-05-19T00:32:15.686Z,16.30
2023-05-19T00:37:15.794Z,13.80
2023-05-19T00:42:15.003Z,15.00
2023-05-19T00:47:13.248Z,13.90
2023-05-19T00:52:13.525Z,12.20
2023-05-19T00:57:11.797Z,11.10
2023-05-19T01:02:12.053Z,11.00
2023-05-19T01:07:10.312Z,10.30
2023-05-19T01:12:10.628Z,9.50
2023-05-19T01:17:08.934Z,9.50
2023-05-19T01:22:08.186Z,9.60
2023-05-19T01:27:09.460Z,8.80
2023-05-19T01:32:06.786Z,7.80
2023-05-19T01:37:05.851Z,8.40
2023-05-19T01:42:07.083Z,7.80
2023-05-19T01:47:04.283Z,7.10
2023-05-19T01:52:03.487Z,6.50
2023-05-19T01:57:02.703Z,7.10
2023-05-19T02:02:01.918Z,6.70
2023-05-19T02:07:02.162Z,6.10
2023-05-19T02:12:01.397Z,5.90
2023-05-19T02:16:59.636Z,6.00
2023-05-19T02:21:59.843Z,5.50
2023-05-19T02:27:02.319Z,5.50
2023-05-19T02:31:58.392Z,4.70
2023-05-19T02:36:58.510Z,5.60
2023-05-19T02:41:55.702Z,5.40
2023-05-19T02:46:55.930Z,4.40
2023-05-19T02:51:54.155Z,4.80
2023-05-19T02:56:54.395Z,4.30
2023-05-19T03:01:52.692Z,4.30
2023-05-19T03:06:52.937Z,4.20
2023-05-19T03:11:51.175Z,4.30
2023-05-19T03:16:50.583Z,3.50
2023-05-19T03:21:50.754Z,3.90
2023-05-19T03:26:49.025Z,4.00
2023-05-19T03:31:48.281Z,4.00
2023-05-19T03:36:47.517Z,3.70
2023-05-19T03:41:46.770Z,3.40
2023-05-19T03:46:46.015Z,3.20
2023-05-19T03:51:45.259Z,3.70
2023-05-19T03:56:44.490Z,3.30
2023-05-19T04:01:43.736Z,2.70
2023-05-19T04:06:43.983Z,3.10
2023-05-19T04:11:42.251Z,3.10
2023-05-19T04:16:42.502Z,3.20
2023-05-19T04:21:40.746Z,2.70
2023-05-19T04:26:40.983Z,2.60
2023-05-19T04:31:39.280Z,2.90
2023-05-19T04:36:38.555Z,2.60
2023-05-19T04:41:38.807Z,2.20
2023-05-19T04:46:39.063Z,3.00
2023-05-19T04:51:37.257Z,2.80
2023-05-19T04:56:35.488Z,2.80
2023-05-19T05:01:35.773Z,2.70
2023-05-19T05:06:35.006Z,2.40
2023-05-19T05:11:34.283Z,2.30
2023-05-19T05:16:33.566Z,3.00
2023-05-19T05:21:32.825Z,2.70
2023-05-19T05:26:31.065Z,2.70
2023-05-19T05:31:31.334Z,2.70
2023-05-19T05:36:30.563Z,2.80
2023-05-19T05:41:29.775Z,3.30
2023-05-19T05:46:30.106Z,2.90
2023-05-19T05:51:27.323Z,3.00
2023-05-19T05:56:27.591Z,2.80
2023-05-19T06:01:25.813Z,3.50
2023-05-19T06:06:26.065Z,2.50
2023-05-19T06:11:24.310Z,2.60
2023-05-19T06:16:23.625Z,2.70
2023-05-19T06:21:23.826Z,2.70
2023-05-19T06:26:22.070Z,2.40
2023-05-19T06:31:22.378Z,3.80
2023-05-19T06:36:20.690Z,4.70
2023-05-19T06:41:20.932Z,3.50
2023-05-19T06:46:19.135Z,3.10
2023-05-19T06:51:18.334Z,3.30
2023-05-19T06:56:19.574Z,3.20
2023-05-19T07:01:18.791Z,5.60
2023-05-19T07:06:15.978Z,3.30
2023-05-19T07:11:15.185Z,3.60
2023-05-19T07:16:15.462Z,4.50
2023-05-19T07:21:13.702Z,3.90
2023-05-19T07:26:12.946Z,3.90
2023-05-19T07:31:12.225Z,3.40
2023-05-19T07:36:12.483Z,3.90
2023-05-19T07:41:10.738Z,3.40
2023-05-19T07:46:10.000Z,3.30
2023-05-19T07:51:11.287Z,3.30
2023-05-19T07:56:08.498Z,96.20
2023-05-19T08:01:08.725Z,130.90
2023-05-19T08:06:06.965Z,84.80
2023-05-19T08:11:06.187Z,124.80
2023-05-19T08:16:06.535Z,141.80
2023-05-19T08:21:05.773Z,102.60
2023-05-19T08:26:03.982Z,61.70
2023-05-19T08:31:03.249Z,50.00
2023-05-19T08:36:01.462Z,31.50
2023-05-19T08:41:02.715Z,32.60
2023-05-19T08:46:02.938Z,35.10
2023-05-19T08:51:00.117Z,30.20
2023-05-19T08:55:59.314Z,87.40
2023-05-19T09:00:58.544Z,72.70
2023-05-19T09:05:57.762Z,51.90
2023-05-19T09:10:56.950Z,40.60
2023-05-19T09:15:56.213Z,44.20
2023-05-19T09:20:55.448Z,97.90
2023-05-19T09:25:55.701Z,76.00
2023-05-19T09:30:53.944Z,41.50
2023-05-19T09:35:53.200Z,47.70
2023-05-19T09:40:52.465Z,32.90
2023-05-19T09:45:51.737Z,39.30
2023-05-19T09:50:50.965Z,30.80
2023-05-19T09:55:51.225Z,13.60
2023-05-19T10:00:49.451Z,15.10
2023-05-19T10:05:48.723Z,17.10
2023-05-19T10:10:47.968Z,11.70
2023-05-19T10:15:58.197Z,12.80
2023-05-19T10:20:46.532Z,10.30
2023-05-19T10:25:46.832Z,9.00
2023-05-19T10:30:45.108Z,9.60
2023-05-19T10:35:45.283Z,7.50
2023-05-19T10:40:43.736Z,9.90
2023-05-19T10:45:42.852Z,7.30
2023-05-19T10:50:43.113Z,7.20
2023-05-19T10:55:42.388Z,6.90
2023-05-19T11:00:41.652Z,5.40
2023-05-19T11:05:41.907Z,6.10
2023-05-19T11:10:41.130Z,6.70
2023-05-19T11:15:38.389Z,5.60
2023-05-19T11:20:37.736Z,6.00
2023-05-19T11:25:36.773Z,4.70
2023-05-19T11:30:36.034Z,5.70
2023-05-19T11:35:36.645Z,5.00
2023-05-19T11:40:36.492Z,5.00
2023-05-19T11:45:33.884Z,5.90
2023-05-19T11:50:32.926Z,4.70
2023-05-19T11:55:32.146Z,4.80
2023-05-19T12:00:31.426Z,4.50
2023-05-19T12:05:31.502Z,4.50
2023-05-19T12:10:29.803Z,4.50
2023-05-19T12:15:29.044Z,4.30
2023-05-19T12:20:28.276Z,3.90
2023-05-19T12:25:27.513Z,5.30
2023-05-19T12:30:26.764Z,4.20
2023-05-19T12:35:26.021Z,4.70
2023-05-19T12:40:25.288Z,3.80
2023-05-19T12:45:24.517Z,4.60
2023-05-19T12:50:23.781Z,4.20
2023-05-19T12:55:23.053Z,4.50
2023-05-19T13:00:22.304Z,4.80
2023-05-19T13:05:21.658Z,5.10
2023-05-19T13:10:21.931Z,4.60
2023-05-19T13:15:20.148Z,5.90
2023-05-19T13:20:19.412Z,5.10
2023-05-19T13:25:18.639Z,4.20
2023-05-19T13:30:17.909Z,4.70
2023-05-19T13:35:17.224Z,8.80
2023-05-19T13:40:17.525Z,113.10
2023-05-19T13:45:16.745Z,95.90
2023-05-19T13:50:15.957Z,142.50
2023-05-19T13:55:16.283Z,80.80
2023-05-19T14:00:13.503Z,122.70
2023-05-19T14:05:12.702Z,122.50
2023-05-19T14:10:11.967Z,75.10
2023-05-19T14:15:12.226Z,45.90
2023-05-19T14:20:11.476Z,46.40
2023-05-19T14:25:11.721Z,33.20
2023-05-19T14:30:09.997Z,19.00
2023-05-19T14:35:09.249Z,12.00
2023-05-19T14:40:07.482Z,16.80
2023-05-19T14:45:06.843Z,123.10
2023-05-19T14:50:06.036Z,65.30
2023-05-19T14:55:05.276Z,48.50
2023-05-19T15:00:05.509Z,26.70
2023-05-19T15:05:03.713Z,23.50
2023-05-19T15:10:03.952Z,17.70
2023-05-19T15:15:02.163Z,11.90
2023-05-19T15:20:01.465Z,10.20
2023-05-19T15:25:00.692Z,9.70
2023-05-19T15:30:00.048Z,8.70
2023-05-19T15:35:00.139Z,14.70
2023-05-19T15:39:58.403Z,171.60
2023-05-19T15:44:58.671Z,80.60
2023-05-19T15:49:58.954Z,57.40
2023-05-19T15:54:57.200Z,41.40
2023-05-19T15:59:56.424Z,33.10
2023-05-19T16:04:54.729Z,23.40
2023-05-19T16:09:53.998Z,14.80
2023-05-19T16:14:54.223Z,16.00
2023-05-19T16:19:52.509Z,31.90
2023-05-19T16:24:51.777Z,98.90
2023-05-19T16:29:51.071Z,54.60
2023-05-19T16:34:52.332Z,196.90
2023-05-19T16:39:49.583Z,77.70
2023-05-19T16:44:48.831Z,62.90
2023-05-19T16:49:48.099Z,41.50
2023-05-19T16:54:49.366Z,43.80
2023-05-19T16:59:48.626Z,27.00
2023-05-19T17:04:45.848Z,33.80
2023-05-19T17:09:45.211Z,25.60
2023-05-19T17:14:44.240Z,110.90
2023-05-19T17:19:43.494Z,101.20
2023-05-19T17:24:44.734Z,68.10
2023-05-19T17:29:42.005Z,60.30
2023-05-19T17:34:43.258Z,50.80
2023-05-19T17:39:43.493Z,36.60
2023-05-19T17:44:39.713Z,28.10
2023-05-19T17:49:39.000Z,24.50
2023-05-19T17:54:38.256Z,21.30
2023-05-19T17:59:39.552Z,21.00
2023-05-19T18:04:37.030Z,15.00
2023-05-19T18:09:36.288Z,15.10
2023-05-19T18:14:35.691Z,15.30
2023-05-19T18:19:34.997Z,16.50
2023-05-19T18:24:35.237Z,13.40
2023-05-19T18:29:33.487Z,87.00
2023-05-19T18:34:31.858Z,75.20
2023-05-19T18:39:33.147Z,54.50
2023-05-19T18:44:31.326Z,48.80
2023-05-19T18:49:32.576Z,38.50
2023-05-19T18:54:29.748Z,36.70
2023-05-19T18:59:29.920Z,38.40
2023-05-19T19:04:28.922Z,30.30
2023-05-19T19:09:29.352Z,28.90
2023-05-19T19:14:28.613Z,23.70
2023-05-19T19:19:25.929Z,18.20
2023-05-19T19:24:26.014Z,22.10
2023-05-19T19:29:24.246Z,18.40
2023-05-19T19:34:23.534Z,15.70
2023-05-19T19:39:22.833Z,82.30
2023-05-19T19:44:23.052Z,76.40
2023-05-19T19:49:21.249Z,72.70
2023-05-19T19:54:20.500Z,67.90
2023-05-19T19:59:19.753Z,58.90
2023-05-19T20:04:19.145Z,51.80
2023-05-19T20:09:19.232Z,44.70
2023-05-19T20:14:18.466Z,39.60
2023-05-19T20:19:16.703Z,34.20
2023-05-19T20:24:16.883Z,32.70
2023-05-19T20:29:16.046Z,30.20
2023-05-19T20:34:14.303Z,60.50
2023-05-19T20:39:14.404Z,108.70
2023-05-19T20:44:12.797Z,71.50
2023-05-19T20:49:12.924Z,72.70
2023-05-19T20:54:10.092Z,50.10
2023-05-19T20:59:10.036Z,53.90
2023-05-19T21:04:09.302Z,47.80
2023-05-19T21:09:08.557Z,42.00
2023-05-19T21:14:07.833Z,39.00
2023-05-19T21:19:08.149Z,31.70
2023-05-19T21:24:06.164Z,31.10
2023-05-19T21:29:10.556Z,29.10
2023-05-19T21:34:05.557Z,28.90
2023-05-19T21:39:03.798Z,32.90
2023-05-19T21:44:03.036Z,103.90
2023-05-19T21:49:03.297Z,83.80
2023-05-19T21:54:01.513Z,71.70
2023-05-19T21:59:00.770Z,60.80
2023-05-19T22:04:00.205Z,56.60
2023-05-19T22:08:59.339Z,45.50
2023-05-19T22:13:59.596Z,54.80
2023-05-19T22:18:58.845Z,39.00
2023-05-19T22:23:57.077Z,39.70
2023-05-19T22:28:57.300Z,33.80
2023-05-19T22:33:56.542Z,28.80
2023-05-19T22:38:54.728Z,39.90
2023-05-19T22:43:55.951Z,40.60
2023-05-19T22:48:53.184Z,32.30
2023-05-19T22:53:52.397Z,25.80
2023-05-19T22:58:52.618Z,21.30
2023-05-19T23:03:50.892Z,24.00
2023-05-19T23:08:54.215Z,20.70
2023-05-19T23:13:51.450Z,20.20
2023-05-19T23:18:48.713Z,17.70
2023-05-19T23:23:47.940Z,15.50
2023-05-19T23:28:47.192Z,15.30
2023-05-19T23:33:46.413Z,15.70
2023-05-19T23:38:45.635Z,14.40
2023-05-19T23:43:45.891Z,13.30
2023-05-19T23:48:45.111Z,12.40
2023-05-19T23:53:45.356Z,11.80
2023-05-19T23:58:42.565Z,11.00
